Time;durP1;ratioP1;P1;durP2;ratioP2;P2;SDS_P1;SDS_P2;PMS_P1;PMS_P2;Temp;Humidity;BMP_temperature;BMP_pressure;BME280_temperature;BME280_humidity;BME280_pressure;Samples;Min_cycle;Max_cycle;Signal;HPM_P1;HPM_P2
2023/07/30 00:01:34;;;;;;;3.85;3.10;;;;;;;22.07;67.48;94497.69;5089546;28;20653;-44
2023/07/30 00:04:01;;;;;;;3.42;2.92;;;;;;;22.04;67.57;94491.06;5070995;28;20205;-45
2023/07/30 00:06:28;;;;;;;3.40;2.75;;;;;;;22.00;67.75;94490.69;5070742;28;20580;-46
2023/07/30 00:08:55;;;;;;;5.15;2.80;;;;;;;22.02;67.75;94496.50;5070619;28;20666;-43
2023/07/30 00:11:21;;;;;;;7.82;3.00;;;;;;;21.99;67.66;94483.13;5070305;28;20723;-45
2023/07/30 00:13:48;;;;;;;3.70;2.90;;;;;;;22.00;67.55;94487.31;5070391;28;20661;-43
2023/07/30 00:16:15;;;;;;;3.80;3.17;;;;;;;21.98;67.81;94487.53;5070049;28;20236;-45
2023/07/30 00:18:43;;;;;;;4.55;3.30;;;;;;;21.95;67.75;94487.94;5070527;28;20194;-44
2023/07/30 00:21:10;;;;;;;3.95;3.35;;;;;;;21.94;67.84;94488.97;5070346;28;20190;-43
2023/07/30 00:23:36;;;;;;;5.55;2.97;;;;;;;21.94;67.85;94488.16;5070143;28;20248;-42
2023/07/30 00:26:03;;;;;;;3.85;3.17;;;;;;;21.94;68.03;94490.78;5070282;28;20187;-45
2023/07/30 00:28:30;;;;;;;3.30;2.97;;;;;;;21.94;67.99;94482.97;5070004;28;20678;-44
2023/07/30 00:30:57;;;;;;;6.20;3.22;;;;;;;21.92;67.87;94475.34;5069936;28;20233;-44
2023/07/30 00:33:24;;;;;;;3.13;2.83;;;;;;;21.88;67.97;94479.38;5070081;28;20218;-42
2023/07/30 00:35:53;;;;;;;6.13;3.47;;;;;;;21.69;68.22;94452.50;5070148;28;20229;-44
2023/07/30 00:38:20;;;;;;;3.42;2.90;;;;;;;21.83;68.14;94473.22;5069809;28;20685;-44
2023/07/30 00:40:47;;;;;;;7.20;3.13;;;;;;;21.79;68.09;94467.63;5069926;28;20768;-44
2023/07/30 00:43:14;;;;;;;3.88;3.05;;;;;;;21.77;68.18;94470.47;5069753;28;20186;-43
2023/07/30 00:45:43;;;;;;;3.10;2.80;;;;;;;21.75;68.25;94469.06;5069988;28;20328;-43
2023/07/30 00:48:10;;;;;;;5.22;2.88;;;;;;;21.73;68.41;94471.91;5069621;28;20642;-43
2023/07/30 00:50:38;;;;;;;4.20;3.08;;;;;;;21.73;68.48;94471.91;5070152;28;20279;-43
2023/07/30 00:53:07;;;;;;;3.78;2.85;;;;;;;21.69;68.39;94480.34;5069857;28;20283;-46
2023/07/30 00:55:34;;;;;;;3.28;2.97;;;;;;;21.69;68.39;94473.31;5069884;28;20187;-44
2023/07/30 00:58:02;;;;;;;3.83;2.70;;;;;;;21.66;68.04;94470.34;5069695;28;20190;-43
2023/07/30 01:00:29;;;;;;;2.90;2.65;;;;;;;21.61;67.82;94470.19;5069662;28;20183;-43
2023/07/30 01:02:56;;;;;;;3.17;2.97;;;;;;;21.59;68.03;94472.19;5069720;28;20686;-45
2023/07/30 01:05:23;;;;;;;4.80;2.60;;;;;;;21.56;68.14;94470.81;5069451;28;20271;-43
2023/07/30 01:07:50;;;;;;;3.80;3.30;;;;;;;21.53;68.09;94479.03;5069730;28;20198;-45
2023/07/30 01:10:19;;;;;;;4.22;2.70;;;;;;;21.48;68.48;94476.28;5069674;28;20182;-43
2023/07/30 01:12:46;;;;;;;2.75;2.55;;;;;;;21.45;68.90;94468.88;5069908;28;20233;-42
2023/07/30 01:15:14;;;;;;;4.93;2.70;;;;;;;21.38;69.10;94465.53;5069708;28;20582;-44
2023/07/30 01:17:41;;;;;;;3.80;3.40;;;;;;;20.44;69.35;94332.59;5069770;28;20220;-43
2023/07/30 01:20:08;;;;;;;3.33;2.78;;;;;;;20.92;69.35;94410.16;5069228;28;20194;-43
2023/07/30 01:22:37;;;;;;;3.17;2.75;;;;;;;21.37;69.19;94476.94;5069543;28;20194;-43
2023/07/30 01:25:04;;;;;;;3.05;2.72;;;;;;;21.35;69.37;94477.16;5069116;28;20198;-43
2023/07/30 01:27:35;;;;;;;5.90;3.15;;;;;;;21.30;69.56;94471.75;5069360;28;20198;-43
2023/07/30 01:30:11;;;;;;;3.35;3.05;;;;;;;21.31;69.49;94468.13;5069148;28;20628;-43
2023/07/30 01:32:39;;;;;;;13.43;3.50;;;;;;;21.33;69.19;94473.16;5069348;28;20780;-44
2023/07/30 01:35:09;;;;;;;3.58;3.28;;;;;;;21.27;69.09;94485.97;5069315;28;20202;-43
2023/07/30 01:37:40;;;;;;;4.10;2.75;;;;;;;21.18;68.89;94479.41;5069303;28;20387;-43
2023/07/30 01:40:10;;;;;;;3.53;3.22;;;;;;;21.10;69.02;94478.84;5069138;28;20201;-44
2023/07/30 01:42:37;;;;;;;3.42;3.10;;;;;;;21.01;69.03;94480.91;5069492;28;20198;-43
2023/07/30 01:45:05;;;;;;;3.40;3.10;;;;;;;20.99;69.03;94485.53;5069016;28;20183;-42
2023/07/30 01:47:32;;;;;;;4.97;2.63;;;;;;;20.97;69.21;94477.91;5069507;28;20226;-43
2023/07/30 01:49:59;;;;;;;7.50;3.20;;;;;;;20.90;69.52;94487.56;5069418;28;20597;-42
2023/07/30 01:52:26;;;;;;;5.97;2.92;;;;;;;20.89;69.49;94483.34;5071320;28;20214;-43
2023/07/30 01:54:55;;;;;;;6.60;3.13;;;;;;;20.88;69.59;94488.75;5069414;28;20179;-43
2023/07/30 01:57:22;;;;;;;3.42;3.13;;;;;;;20.87;69.77;94487.97;5069413;28;20647;-42
2023/07/30 01:59:49;;;;;;;3.38;3.08;;;;;;;20.83;70.03;94485.97;5068982;28;20201;-44
2023/07/30 02:02:16;;;;;;;6.25;2.90;;;;;;;20.82;70.21;94492.19;5069260;28;20186;-43
2023/07/30 02:04:43;;;;;;;4.00;2.58;;;;;;;20.80;70.22;94493.16;5069092;28;20681;-43
2023/07/30 02:07:09;;;;;;;3.97;3.33;;;;;;;20.78;70.63;94490.00;5069179;28;20631;-43
2023/07/30 02:09:36;;;;;;;9.15;3.42;;;;;;;20.77;70.85;94487.63;5072828;28;20731;-44
2023/07/30 02:12:05;;;;;;;3.40;3.10;;;;;;;20.78;71.17;94490.00;5072830;28;20249;-42
2023/07/30 02:14:32;;;;;;;4.03;2.95;;;;;;;20.75;71.33;94485.19;5072981;28;20179;-43
2023/07/30 02:16:59;;;;;;;5.47;3.05;;;;;;;20.75;71.28;94489.59;5072535;28;20186;-43
2023/07/30 02:19:25;;;;;;;4.18;3.00;;;;;;;20.74;71.51;94496.59;5072657;28;20266;-43
2023/07/30 02:21:52;;;;;;;5.80;3.17;;;;;;;20.71;71.63;94491.81;5072366;28;20195;-43
2023/07/30 02:24:19;;;;;;;4.67;3.07;;;;;;;20.70;71.97;94497.22;5072632;28;20670;-43
2023/07/30 02:26:46;;;;;;;3.47;2.80;;;;;;;20.69;71.97;94487.84;5072564;28;20190;-43
2023/07/30 02:29:14;;;;;;;4.40;2.70;;;;;;;20.66;71.96;94502.03;5072857;28;20213;-43
2023/07/30 02:31:40;;;;;;;5.30;3.20;;;;;;;20.63;72.06;94501.63;5072833;28;20552;-42
2023/07/30 02:34:08;;;;;;;3.53;2.90;;;;;;;20.62;72.56;94502.63;5072189;28;20608;-43
2023/07/30 02:36:34;;;;;;;2.92;2.70;;;;;;;20.58;72.54;94491.06;5072281;28;20677;-43
2023/07/30 02:39:01;;;;;;;4.38;3.08;;;;;;;20.60;72.69;94496.88;5072308;28;20190;-43
2023/07/30 02:41:28;;;;;;;4.25;2.97;;;;;;;20.55;72.94;94497.44;5072279;28;20634;-43
2023/07/30 02:43:55;;;;;;;3.38;3.08;;;;;;;20.53;73.14;94502.84;5071865;28;20191;-42
2023/07/30 02:46:23;;;;;;;4.43;2.78;;;;;;;20.52;73.12;94501.28;5072457;28;20183;-43
2023/07/30 02:48:49;;;;;;;3.53;3.20;;;;;;;20.51;73.46;94501.47;5072217;28;20198;-43
2023/07/30 02:51:16;;;;;;;6.57;3.00;;;;;;;20.51;73.21;94504.06;5072380;28;20241;-43
2023/07/30 02:53:44;;;;;;;3.40;3.10;;;;;;;20.52;73.13;94505.66;5071632;28;20232;-44
2023/07/30 02:56:11;;;;;;;3.08;2.60;;;;;;;20.51;72.87;94501.47;5072066;28;20252;-44
2023/07/30 02:58:37;;;;;;;4.77;3.57;;;;;;;20.49;73.11;94503.47;5071706;28;20731;-43
2023/07/30 03:01:08;;;;;;;3.20;2.90;;;;;;;20.46;72.92;94504.63;5072009;28;20264;-44
2023/07/30 03:03:36;;;;;;;4.88;3.58;;;;;;;20.43;72.79;94502.47;5071952;28;20210;-45
2023/07/30 03:06:03;;;;;;;4.05;2.83;;;;;;;20.42;72.81;94500.88;5071926;28;20666;-45
2023/07/30 03:08:29;;;;;;;3.08;2.83;;;;;;;20.42;72.52;94505.25;5071914;28;20182;-45
2023/07/30 03:10:59;;;;;;;3.17;2.88;;;;;;;20.38;72.39;94509.25;5071700;28;20198;-44
2023/07/30 03:13:25;;;;;;;5.53;3.40;;;;;;;20.39;72.64;94509.06;5071557;28;20225;-44
2023/07/30 03:15:52;;;;;;;3.30;3.00;;;;;;;20.39;72.59;94498.66;5071526;28;20182;-42
2023/07/30 03:18:19;;;;;;;4.53;3.07;;;;;;;20.39;72.58;94508.25;5071595;28;20183;-43
2023/07/30 03:20:47;;;;;;;3.20;2.90;;;;;;;20.40;72.62;94502.06;5071287;28;20672;-41
2023/07/30 03:23:14;;;;;;;3.13;2.83;;;;;;;20.40;72.29;94504.66;5071769;28;20240;-43
2023/07/30 03:25:41;;;;;;;3.35;3.05;;;;;;;20.42;72.62;94503.47;5071527;28;20183;-42
2023/07/30 03:28:07;;;;;;;3.47;3.17;;;;;;;20.41;72.74;94496.66;5071671;28;20198;-43
2023/07/30 03:30:34;;;;;;;6.17;2.97;;;;;;;20.39;72.82;94498.66;5070925;28;20225;-43
2023/07/30 03:33:01;;;;;;;3.50;3.00;;;;;;;20.40;72.78;94507.25;5071484;28;20225;-43
2023/07/30 03:35:28;;;;;;;4.32;2.80;;;;;;;20.40;72.77;94504.66;5071112;28;20846;-42
2023/07/30 03:37:56;;;;;;;8.43;3.27;;;;;;;20.43;72.71;94499.06;5071162;28;20186;-43
2023/07/30 03:40:22;;;;;;;4.22;2.97;;;;;;;20.46;72.61;94509.81;5071044;28;20654;-43
2023/07/30 03:42:50;;;;;;;3.77;3.23;;;;;;;20.50;72.71;94510.25;5071037;28;20666;-44
2023/07/30 03:45:17;;;;;;;4.03;3.27;;;;;;;20.51;72.77;94511.88;5072238;28;20208;-44
2023/07/30 03:47:43;;;;;;;3.75;2.67;;;;;;;20.54;72.48;94506.25;5070945;28;20244;-42
2023/07/30 03:50:10;;;;;;;4.30;2.67;;;;;;;20.56;72.63;94506.06;5071199;28;20677;-44
2023/07/30 03:52:37;;;;;;;3.43;3.10;;;;;;;20.58;72.53;94510.03;5070557;28;20218;-43
2023/07/30 03:55:06;;;;;;;4.33;3.33;;;;;;;20.65;72.64;94515.22;5071108;28;20197;-44
2023/07/30 03:57:33;;;;;;;3.23;2.93;;;;;;;20.66;72.31;94514.22;5070801;28;20197;-43
2023/07/30 03:59:59;;;;;;;6.45;4.00;;;;;;;20.71;72.26;94517.00;5070922;28;20186;-43
2023/07/30 04:02:26;;;;;;;3.33;2.97;;;;;;;20.76;71.36;94517.97;5070559;28;20194;-42
2023/07/30 04:04:53;;;;;;;7.55;3.08;;;;;;;20.80;70.12;94520.97;5070789;28;20186;-43
2023/07/30 04:07:20;;;;;;;4.90;2.80;;;;;;;20.78;69.75;94525.59;5070464;28;20194;-43
2023/07/30 04:09:47;;;;;;;9.15;3.58;;;;;;;20.77;69.62;94524.00;5070818;28;20194;-43
2023/07/30 04:12:15;;;;;;;5.95;2.92;;;;;;;20.76;69.68;94522.38;5070381;28;20666;-43
2023/07/30 04:14:41;;;;;;;4.82;3.05;;;;;;;20.81;69.67;94527.75;5070922;28;20312;-43
2023/07/30 04:17:08;;;;;;;5.53;2.92;;;;;;;20.81;69.69;94525.16;5070875;28;20206;-44
2023/07/30 04:19:35;;;;;;;5.25;2.95;;;;;;;20.84;69.44;94522.16;5070214;28;20268;-44
2023/07/30 04:22:02;;;;;;;3.47;2.70;;;;;;;20.89;69.32;94524.94;5070268;28;20194;-45
2023/07/30 04:24:28;;;;;;;3.88;3.28;;;;;;;20.96;69.38;94528.31;5069991;28;20641;-43
2023/07/30 04:26:55;;;;;;;3.55;3.25;;;;;;;20.99;69.52;94524.53;5070397;28;20676;-45
2023/07/30 04:29:23;;;;;;;3.80;3.25;;;;;;;21.04;69.60;94529.91;5069919;28;20194;-45
2023/07/30 04:31:50;;;;;;;4.60;3.30;;;;;;;21.13;69.64;94533.06;5069678;28;20193;-41
2023/07/30 04:34:17;;;;;;;7.43;3.40;;;;;;;21.18;69.54;94526.22;5070004;28;20230;-43
2023/07/30 04:36:43;;;;;;;6.50;3.78;;;;;;;21.23;69.45;94525.59;5070077;28;20243;-43
2023/07/30 04:39:12;;;;;;;5.22;3.13;;;;;;;21.29;69.45;94519.59;5069956;28;20638;-41
2023/07/30 04:41:39;;;;;;;4.57;3.42;;;;;;;21.36;69.60;94530.78;5069936;28;20179;-41
2023/07/30 04:44:05;;;;;;;6.65;3.95;;;;;;;21.42;69.66;94532.56;5069843;28;20275;-44
2023/07/30 04:46:34;;;;;;;7.28;4.10;;;;;;;21.44;69.67;94534.94;5069938;28;20209;-42
2023/07/30 04:49:03;;;;;;;6.22;3.88;;;;;;;21.43;69.94;94534.16;5069658;28;20194;-44
2023/07/30 04:51:30;;;;;;;9.70;3.70;;;;;;;21.48;70.21;94536.91;5069753;28;20642;-46
2023/07/30 04:53:56;;;;;;;7.18;3.70;;;;;;;21.52;70.28;94545.91;5069759;28;20222;-44
2023/07/30 04:56:26;;;;;;;4.45;4.05;;;;;;;21.58;70.58;94531.25;5069989;28;20562;-43
2023/07/30 04:58:53;;;;;;;4.55;4.05;;;;;;;20.98;70.65;94424.09;5069746;28;20206;-43
2023/07/30 05:01:19;;;;;;;6.10;4.25;;;;;;;21.70;70.26;94531.38;5069747;28;20552;-44
2023/07/30 05:03:47;;;;;;;5.32;3.53;;;;;;;21.85;70.10;94541.47;5069749;28;20624;-42
2023/07/30 05:06:14;;;;;;;4.55;3.85;;;;;;;22.07;69.57;94534.13;5069937;28;20605;-42
2023/07/30 05:08:41;;;;;;;9.98;4.65;;;;;;;22.15;68.76;94510.44;5070024;28;20627;-44
2023/07/30 05:11:08;;;;;;;5.25;3.67;;;;;;;22.64;67.43;94530.44;5069590;28;20581;-44
2023/07/30 05:13:35;;;;;;;9.48;4.13;;;;;;;23.07;66.15;94537.41;5069844;28;20685;-43
2023/07/30 05:16:01;;;;;;;4.93;3.33;;;;;;;23.48;65.12;94530.69;5069907;28;20182;-43
2023/07/30 05:18:28;;;;;;;5.38;4.13;;;;;;;23.97;62.72;94534.03;5069607;28;20178;-43
2023/07/30 05:20:57;;;;;;;6.88;3.50;;;;;;;24.36;61.17;94540.44;5069643;28;20182;-44
2023/07/30 05:23:23;;;;;;;4.00;3.60;;;;;;;24.71;60.04;94526.59;5069843;28;20222;-43
2023/07/30 05:25:50;;;;;;;4.30;3.92;;;;;;;24.97;58.68;94527.91;5069371;28;20214;-44
2023/07/30 05:28:17;;;;;;;5.25;3.35;;;;;;;25.16;58.12;94526.75;5069422;28;20674;-43
2023/07/30 05:30:44;;;;;;;4.97;3.40;;;;;;;25.36;57.33;94530.78;5069218;28;20236;-44
2023/07/30 05:33:11;;;;;;;3.72;3.42;;;;;;;25.59;56.96;94533.31;5069102;28;20698;-43
2023/07/30 05:35:38;;;;;;;5.85;4.05;;;;;;;25.82;56.08;94534.25;5069746;28;20191;-43
2023/07/30 05:38:06;;;;;;;4.35;3.55;;;;;;;26.07;55.37;94526.00;5069877;28;20194;-43
2023/07/30 05:40:33;;;;;;;4.80;3.35;;;;;;;26.26;54.74;94536.03;5071517;28;20608;-43
2023/07/30 05:43:00;;;;;;;6.32;4.57;;;;;;;26.71;53.99;94543.00;5070920;28;20620;-43
2023/07/30 05:45:27;;;;;;;4.18;3.78;;;;;;;27.25;52.31;94540.56;5073496;28;20669;-45
2023/07/30 05:47:54;;;;;;;4.78;4.28;;;;;;;27.60;50.64;94542.00;5072997;28;20620;-44
2023/07/30 05:50:20;;;;;;;4.05;3.75;;;;;;;27.75;50.58;94542.16;5073363;28;20198;-43
2023/07/30 05:52:47;;;;;;;7.15;4.00;;;;;;;28.01;50.51;94539.75;5073397;28;20194;-45
2023/07/30 05:55:15;;;;;;;5.18;4.47;;;;;;;28.38;49.49;94544.31;5073643;28;20217;-44
2023/07/30 05:57:42;;;;;;;7.78;4.68;;;;;;;28.69;48.28;94540.81;5073032;28;20271;-43
2023/07/30 06:00:10;;;;;;;6.15;4.55;;;;;;;28.97;46.51;94542.31;5073320;28;20193;-43
2023/07/30 06:02:36;;;;;;;4.80;4.40;;;;;;;28.98;46.66;94551.00;5073209;28;20182;-45
2023/07/30 06:05:04;;;;;;;4.75;4.03;;;;;;;28.85;47.13;94551.44;5072969;28;20191;-42
2023/07/30 06:07:30;;;;;;;4.65;3.88;;;;;;;29.06;46.82;94547.91;5073364;28;20209;-45
2023/07/30 06:09:57;;;;;;;5.15;4.32;;;;;;;29.42;45.34;94556.72;5072655;28;20190;-43
2023/07/30 06:12:25;;;;;;;5.75;3.80;;;;;;;29.29;45.54;94556.41;5073035;28;20259;-43
2023/07/30 06:14:52;;;;;;;4.30;3.85;;;;;;;29.38;45.64;94554.84;5072512;28;20218;-45
2023/07/30 06:17:19;;;;;;;4.05;3.65;;;;;;;29.55;44.69;94558.06;5072837;28;20202;-44
2023/07/30 06:19:46;;;;;;;5.25;3.83;;;;;;;29.70;43.89;94557.34;5072489;28;20216;-43
2023/07/30 06:22:12;;;;;;;4.65;4.00;;;;;;;29.71;44.06;94549.19;5072676;28;20194;-44
2023/07/30 06:24:39;;;;;;;4.60;4.00;;;;;;;29.65;44.26;94552.06;5072682;28;20252;-43
2023/07/30 06:27:06;;;;;;;5.18;4.00;;;;;;;29.72;43.97;94534.16;5072650;28;20656;-44
2023/07/30 06:29:34;;;;;;;4.07;3.35;;;;;;;29.81;43.48;94548.41;5072423;28;20248;-44
2023/07/30 06:32:01;;;;;;;4.13;3.42;;;;;;;29.70;44.10;94546.78;5072438;28;20189;-43
2023/07/30 06:34:28;;;;;;;9.63;3.47;;;;;;;29.80;43.69;94543.41;5072356;28;20294;-44
2023/07/30 06:36:55;;;;;;;4.43;3.38;;;;;;;30.06;43.52;94534.47;5072591;28;20198;-46
2023/07/30 06:39:22;;;;;;;5.03;3.70;;;;;;;30.40;42.58;94534.75;5072650;28;20244;-46
2023/07/30 06:41:49;;;;;;;7.70;3.38;;;;;;;30.64;41.72;94539.47;5072407;28;20247;-44
2023/07/30 06:44:15;;;;;;;3.63;3.25;;;;;;;30.99;40.99;94530.69;5072749;28;20232;-45
2023/07/30 06:46:44;;;;;;;4.43;3.33;;;;;;;31.35;40.32;94538.50;5072000;28;20281;-45
2023/07/30 06:49:10;;;;;;;6.32;3.15;;;;;;;31.56;39.91;94531.25;5072180;28;20626;-43
2023/07/30 06:51:37;;;;;;;5.45;3.65;;;;;;;31.79;40.05;94527.16;5071931;28;20663;-43
2023/07/30 06:54:04;;;;;;;3.20;2.90;;;;;;;32.09;39.12;94521.69;5071619;28;20650;-43
2023/07/30 06:56:31;;;;;;;3.40;2.72;;;;;;;32.30;38.60;94521.50;5071824;28;20658;-43
2023/07/30 06:58:58;;;;;;;3.75;2.90;;;;;;;32.47;37.98;94521.88;5072186;28;20244;-44
2023/07/30 07:01:25;;;;;;;2.88;2.67;;;;;;;32.64;37.72;94524.94;5071845;28;20553;-44
2023/07/30 07:03:53;;;;;;;2.80;2.55;;;;;;;32.86;37.15;94523.63;5071861;28;20183;-45
2023/07/30 07:06:19;;;;;;;3.20;2.78;;;;;;;32.90;37.54;94514.03;5072246;28;20312;-44
2023/07/30 07:08:46;;;;;;;3.33;3.03;;;;;;;32.87;37.36;94518.06;5071860;28;20191;-45
2023/07/30 07:11:13;;;;;;;3.03;2.80;;;;;;;33.08;36.83;94510.69;5071508;28;20191;-43
2023/07/30 07:13:40;;;;;;;3.00;2.72;;;;;;;33.21;36.42;94515.31;5071783;28;20190;-44
2023/07/30 07:16:07;;;;;;;4.18;2.70;;;;;;;33.33;36.38;94512.22;5071585;28;20194;-43
2023/07/30 07:18:33;;;;;;;4.13;2.50;;;;;;;33.39;35.31;94508.44;5071603;28;20190;-43
2023/07/30 07:21:02;;;;;;;5.22;2.67;;;;;;;33.47;35.28;94500.97;5071532;28;20194;-44
2023/07/30 07:23:29;;;;;;;3.25;2.85;;;;;;;33.37;35.49;94499.97;5071610;28;20186;-45
2023/07/30 07:25:56;;;;;;;5.22;3.35;;;;;;;33.34;35.81;94503.22;5071706;28;20190;-44
2023/07/30 07:28:22;;;;;;;4.00;3.60;;;;;;;33.10;36.38;94483.91;5071641;28;20194;-45
2023/07/30 07:30:49;;;;;;;3.65;2.60;;;;;;;33.24;36.30;94498.03;5072088;28;20218;-44
2023/07/30 07:33:16;;;;;;;3.10;2.88;;;;;;;33.35;35.62;94491.53;5072844;28;20194;-44
2023/07/30 07:35:43;;;;;;;6.93;3.13;;;;;;;33.34;36.13;94487.31;5071851;28;20233;-45
2023/07/30 07:38:11;;;;;;;6.32;2.88;;;;;;;33.51;36.44;94488.69;5071342;28;20250;-44
2023/07/30 07:40:40;;;;;;;4.00;3.05;;;;;;;33.58;35.80;94474.00;5071515;28;20194;-44
2023/07/30 07:43:07;;;;;;;3.13;2.90;;;;;;;33.71;35.31;94483.88;5071273;28;20236;-44
2023/07/30 07:45:33;;;;;;;3.92;2.90;;;;;;;33.83;34.97;94486.09;5071342;28;20248;-44
2023/07/30 07:48:00;;;;;;;2.85;2.60;;;;;;;33.83;34.90;94478.13;5071320;28;20209;-44
2023/07/30 07:50:27;;;;;;;4.13;3.25;;;;;;;33.99;34.86;94483.25;5071404;28;20190;-44
2023/07/30 07:52:54;;;;;;;3.95;2.80;;;;;;;34.17;35.07;94477.09;5071085;28;20195;-44
2023/07/30 07:55:22;;;;;;;6.15;2.92;;;;;;;34.27;34.49;94484.09;5070741;28;20229;-45
2023/07/30 07:57:49;;;;;;;4.70;3.05;;;;;;;34.31;35.00;94477.91;5070995;28;20289;-43
2023/07/30 08:00:16;;;;;;;5.30;3.15;;;;;;;34.43;34.62;94480.88;5070510;28;20190;-45
2023/07/30 08:02:43;;;;;;;4.78;3.45;;;;;;;34.12;34.86;94475.31;5070883;28;20190;-45
2023/07/30 08:05:09;;;;;;;3.42;3.13;;;;;;;33.91;35.65;94482.00;5069750;28;20691;-44
2023/07/30 08:07:36;;;;;;;3.47;2.95;;;;;;;33.88;35.21;94477.25;5070658;28;20662;-45
2023/07/30 08:10:03;;;;;;;6.75;3.70;;;;;;;34.04;34.93;94472.53;5070414;28;20735;-44
2023/07/30 08:12:34;;;;;;;4.43;3.97;;;;;;;33.93;34.75;94466.56;5070712;28;20190;-44
2023/07/30 08:15:00;;;;;;;5.13;3.17;;;;;;;33.74;34.89;94466.59;5070139;28;20613;-44
2023/07/30 08:17:27;;;;;;;3.85;3.50;;;;;;;33.70;35.63;94468.25;5070814;28;20324;-45
2023/07/30 08:19:54;;;;;;;5.43;3.42;;;;;;;33.79;35.75;94461.22;5070586;28;20183;-44
2023/07/30 08:22:21;;;;;;;3.45;3.15;;;;;;;33.97;34.51;94466.81;5070680;28;20185;-43
2023/07/30 08:24:47;;;;;;;4.18;3.78;;;;;;;34.13;34.53;94476.88;5070843;28;20190;-43
2023/07/30 08:27:14;;;;;;;4.85;3.55;;;;;;;34.22;34.62;94465.59;5070142;28;20194;-44
2023/07/30 08:29:44;;;;;;;3.83;3.42;;;;;;;34.19;34.76;94462.44;5070100;28;20237;-45
2023/07/30 08:32:10;;;;;;;3.42;3.13;;;;;;;34.23;34.30;94453.91;5070100;28;20194;-43
2023/07/30 08:34:37;;;;;;;5.45;3.40;;;;;;;34.33;34.31;94459.03;5070608;28;20214;-44
2023/07/30 08:37:04;;;;;;;4.10;3.13;;;;;;;34.35;33.86;94457.66;5070106;28;20190;-44
2023/07/30 08:39:31;;;;;;;7.68;4.68;;;;;;;34.32;33.99;94449.47;5070061;28;20192;-44
2023/07/30 08:41:59;;;;;;;6.18;4.07;;;;;;;34.46;33.97;94450.31;5070246;28;20212;-45
2023/07/30 08:44:26;;;;;;;9.07;3.88;;;;;;;34.62;34.15;94448.16;5071155;28;20186;-43
2023/07/30 08:46:55;;;;;;;6.60;3.30;;;;;;;34.66;33.59;94451.81;5069790;28;20281;-43
2023/07/30 08:49:22;;;;;;;6.55;3.50;;;;;;;34.65;33.72;94447.59;5070147;28;20547;-45
2023/07/30 08:51:53;;;;;;;3.65;3.35;;;;;;;34.63;33.49;94447.06;5070050;28;20213;-44
2023/07/30 08:54:22;;;;;;;4.38;3.20;;;;;;;34.66;33.51;94444.63;5069920;28;20233;-44
2023/07/30 08:56:49;;;;;;;6.00;3.65;;;;;;;34.79;33.67;94450.22;5069808;28;20190;-43
2023/07/30 08:59:17;;;;;;;6.22;3.35;;;;;;;34.85;33.70;94447.19;5069702;28;20187;-44
2023/07/30 09:01:47;;;;;;;3.88;3.28;;;;;;;34.67;33.46;94411.69;5069407;28;20665;-43
2023/07/30 09:04:18;;;;;;;3.17;2.92;;;;;;;34.89;32.69;94437.53;5069759;28;20202;-44
2023/07/30 09:06:49;;;;;;;4.47;3.28;;;;;;;34.90;32.44;94435.66;5069502;28;20186;-44
2023/07/30 09:09:15;;;;;;;7.05;3.08;;;;;;;34.86;32.38;94432.03;5069679;28;20190;-45
2023/07/30 09:11:42;;;;;;;3.20;2.90;;;;;;;34.72;31.91;94417.94;5069377;28;20186;-44
2023/07/30 09:14:09;;;;;;;3.67;3.10;;;;;;;34.91;32.36;94429.25;5069875;28;20213;-45
2023/07/30 09:16:36;;;;;;;4.80;3.05;;;;;;;34.91;32.18;94427.38;5069374;28;20229;-44
2023/07/30 09:19:03;;;;;;;6.32;3.60;;;;;;;34.89;32.35;94429.56;5069151;28;20665;-43
2023/07/30 09:21:35;;;;;;;3.97;3.33;;;;;;;34.82;32.21;94428.38;5069586;28;20186;-43
2023/07/30 09:24:05;;;;;;;3.50;3.20;;;;;;;34.67;32.15;94416.19;5069820;28;20179;-45
2023/07/30 09:26:41;;;;;;;3.20;2.90;;;;;;;34.78;30.91;94435.38;5069668;28;20701;-44
2023/07/30 09:29:09;;;;;;;3.97;3.13;;;;;;;34.70;31.03;94423.56;5069531;28;20214;-44
2023/07/30 09:31:47;;;;;;;4.95;3.83;;;;;;;34.67;30.79;94416.19;5069246;28;20225;-43
2023/07/30 09:34:16;;;;;;;4.13;3.22;;;;;;;34.43;31.10;94364.03;5069346;28;20566;-44
2023/07/30 09:36:46;;;;;;;3.92;3.10;;;;;;;34.70;31.31;94426.22;5069665;28;20578;-44
2023/07/30 09:39:18;;;;;;;7.35;3.22;;;;;;;34.55;30.76;94405.28;5069448;28;20182;-43
2023/07/30 09:41:45;;;;;;;6.32;3.25;;;;;;;34.48;31.34;94395.03;5069277;28;20197;-45
2023/07/30 09:44:12;;;;;;;4.55;2.72;;;;;;;34.55;31.24;94406.06;5069088;28;20198;-45
2023/07/30 09:46:48;;;;;;;4.75;3.30;;;;;;;34.55;31.65;94405.28;5069455;28;20700;-46
2023/07/30 09:49:16;;;;;;;4.00;3.45;;;;;;;34.55;31.30;94403.41;5069139;28;20653;-44
2023/07/30 09:51:43;;;;;;;3.42;3.03;;;;;;;34.52;31.55;94397.91;5069249;28;20205;-43
2023/07/30 09:54:11;;;;;;;6.68;2.97;;;;;;;34.37;31.37;94404.25;5069189;28;20198;-43
2023/07/30 09:56:39;;;;;;;5.88;3.45;;;;;;;34.29;31.62;94392.47;5069221;28;20232;-44
2023/07/30 09:59:06;;;;;;;7.78;3.10;;;;;;;34.34;31.81;94391.56;5068983;28;20191;-45
2023/07/30 10:01:36;;;;;;;3.58;3.05;;;;;;;34.25;31.78;94385.38;5069272;28;20190;-44
2023/07/30 10:04:09;;;;;;;6.28;3.95;;;;;;;34.27;31.66;94393.81;5069098;28;20198;-43
2023/07/30 10:06:40;;;;;;;3.40;3.10;;;;;;;34.25;31.40;94388.03;5069253;28;20284;-43
2023/07/30 10:09:08;;;;;;;5.70;3.38;;;;;;;34.16;31.03;94372.78;5069155;28;20193;-44
2023/07/30 10:11:37;;;;;;;3.65;3.17;;;;;;;34.20;31.36;94379.09;5069344;28;20209;-44
2023/07/30 10:14:04;;;;;;;4.35;3.17;;;;;;;34.10;31.47;94370.50;5068727;28;20543;-42
2023/07/30 10:16:31;;;;;;;4.20;3.80;;;;;;;34.11;31.42;94370.22;5069015;28;20716;-44
2023/07/30 10:18:59;;;;;;;3.47;3.17;;;;;;;34.14;31.49;94371.50;5068698;28;20210;-44
2023/07/30 10:21:29;;;;;;;4.03;3.17;;;;;;;34.22;31.42;94367.38;5069220;28;20186;-44
2023/07/30 10:24:01;;;;;;;4.05;3.63;;;;;;;34.13;31.55;94362.75;5068922;28;20624;-45
2023/07/30 10:26:29;;;;;;;3.17;2.83;;;;;;;34.06;31.81;94359.69;5069008;28;20198;-45
2023/07/30 10:29:12;;;;;;;3.85;2.75;;;;;;;33.95;31.81;94355.63;5069863;28;20665;-45
2023/07/30 10:31:40;;;;;;;6.47;3.85;;;;;;;33.82;31.95;94356.38;5071479;28;20218;-45
2023/07/30 10:34:09;;;;;;;3.47;3.17;;;;;;;33.61;32.10;94350.63;5072525;28;20241;-45
2023/07/30 10:36:43;;;;;;;4.68;3.58;;;;;;;33.51;32.55;94338.34;5072842;28;20236;-44
2023/07/30 10:39:14;;;;;;;3.95;3.25;;;;;;;33.57;32.04;94337.16;5072178;28;20202;-44
2023/07/30 10:41:42;;;;;;;3.97;3.58;;;;;;;33.63;32.15;94343.16;5072367;28;20190;-44
2023/07/30 10:44:20;;;;;;;7.20;3.70;;;;;;;33.59;31.79;94331.56;5072059;28;20223;-44
2023/07/30 10:46:47;;;;;;;3.58;3.28;;;;;;;33.63;31.68;94335.22;5072211;28;20196;-45
2023/07/30 10:49:14;;;;;;;3.97;3.58;;;;;;;33.59;32.13;94321.72;5071993;28;20216;-45
2023/07/30 10:51:41;;;;;;;3.65;3.30;;;;;;;33.73;32.15;94331.63;5072160;28;20187;-44
2023/07/30 10:54:08;;;;;;;4.15;3.63;;;;;;;33.77;31.75;94322.78;5071916;28;20186;-45
2023/07/30 10:56:37;;;;;;;3.13;2.75;;;;;;;33.86;31.80;94315.72;5072261;28;20220;-44
2023/07/30 10:59:05;;;;;;;3.50;3.30;;;;;;;33.86;31.95;94299.00;5071787;28;20388;-44
2023/07/30 11:01:37;;;;;;;6.20;3.58;;;;;;;33.97;31.76;94311.03;5071974;28;20230;-45
2023/07/30 11:04:07;;;;;;;6.32;3.35;;;;;;;34.00;31.89;94305.13;5071709;28;20193;-44
2023/07/30 11:06:34;;;;;;;3.75;3.45;;;;;;;34.06;31.45;94298.63;5071904;28;20248;-45
2023/07/30 11:09:01;;;;;;;4.05;3.65;;;;;;;34.07;31.61;94294.09;5071695;28;20197;-43
2023/07/30 11:11:28;;;;;;;4.82;3.47;;;;;;;34.09;31.44;94292.75;5071836;28;20197;-43
2023/07/30 11:13:55;;;;;;;4.95;3.80;;;;;;;34.00;31.19;94296.38;5071655;28;20224;-57
2023/07/30 11:16:23;;;;;;;3.58;3.28;;;;;;;33.89;31.27;94283.25;5072624;28;20674;-45
2023/07/30 11:18:51;;;;;;;5.35;3.72;;;;;;;33.89;31.43;94283.25;5071753;28;20202;-44
2023/07/30 11:21:19;;;;;;;4.22;3.45;;;;;;;33.87;31.46;94276.69;5071751;28;20658;-42
2023/07/30 11:23:47;;;;;;;3.88;3.50;;;;;;;33.89;31.59;94271.88;5071682;28;20195;-43
2023/07/30 11:26:18;;;;;;;4.28;3.90;;;;;;;33.86;31.61;94272.47;5071201;28;20675;-44
2023/07/30 11:28:45;;;;;;;4.82;3.53;;;;;;;33.80;31.58;94273.63;5071689;28;20198;-43
2023/07/30 11:31:14;;;;;;;3.70;3.40;;;;;;;33.24;31.87;94187.88;5071078;28;20233;-45
2023/07/30 11:33:42;;;;;;;3.85;3.55;;;;;;;33.74;31.86;94265.00;5071742;28;20182;-44
2023/07/30 11:36:13;;;;;;;4.53;3.88;;;;;;;33.77;31.82;94263.63;5071301;28;20226;-44